createdAt,value
2017-11-15T00:02:10.646Z,16.12
2017-11-15T00:04:38.678Z,13.82
2017-11-15T00:07:06.140Z,15.20
2017-11-15T00:09:33.577Z,12.23
2017-11-15T00:12:01.050Z,14.60
2017-11-15T00:14:28.514Z,12.77
2017-11-15T00:16:56.053Z,13.18
2017-11-15T00:19:23.522Z,13.67
2017-11-15T00:21:52.817Z,13.27
2017-11-15T00:24:20.565Z,12.37
2017-11-15T00:26:48.009Z,14.67
2017-11-15T00:29:15.447Z,13.90
2017-11-15T00:31:46.834Z,13.07
2017-11-15T00:34:14.282Z,15.27
2017-11-15T00:36:41.870Z,14.48
2017-11-15T00:39:09.490Z,13.90
2017-11-15T00:41:36.953Z,14.03
2017-11-15T00:44:04.401Z,13.93
2017-11-15T00:46:31.973Z,14.07
2017-11-15T00:48:59.430Z,14.30
2017-11-15T00:51:27.459Z,13.67
2017-11-15T00:53:55.310Z,12.95
2017-11-15T00:56:22.766Z,13.30
2017-11-15T00:58:50.209Z,13.70
2017-11-15T01:01:21.641Z,12.77
2017-11-15T01:03:50.020Z,15.30
2017-11-15T01:06:18.247Z,13.45
2017-11-15T01:08:45.709Z,13.73
2017-11-15T01:11:13.304Z,13.93
2017-11-15T01:13:40.769Z,14.10
2017-11-15T01:16:08.226Z,14.52
2017-11-15T01:18:35.685Z,13.90
2017-11-15T01:21:03.777Z,12.88
2017-11-15T01:23:31.986Z,14.10
2017-11-15T01:25:59.437Z,14.70
2017-11-15T01:28:27.025Z,13.50
2017-11-15T01:31:02.188Z,14.25
2017-11-15T01:33:29.658Z,11.63
2017-11-15T01:35:57.895Z,12.50
2017-11-15T01:38:25.381Z,15.07
2017-11-15T01:40:54.754Z,12.97
2017-11-15T01:43:22.197Z,13.70
2017-11-15T01:45:49.663Z,15.67
2017-11-15T01:48:22.666Z,13.20
2017-11-15T01:50:50.150Z,14.43
2017-11-15T01:53:17.605Z,13.03
2017-11-15T01:55:45.458Z,14.17
2017-11-15T01:58:14.018Z,12.52
2017-11-15T02:00:53.291Z,13.40
2017-11-15T02:03:25.234Z,12.00
2017-11-15T02:05:52.678Z,13.73
2017-11-15T02:08:20.182Z,12.52
2017-11-15T02:10:47.629Z,14.30
2017-11-15T02:13:15.083Z,13.67
2017-11-15T02:15:42.583Z,15.15
2017-11-15T02:18:10.173Z,14.40
2017-11-15T02:20:39.334Z,14.30
2017-11-15T02:23:07.018Z,13.43
2017-11-15T02:25:34.539Z,14.83
2017-11-15T02:28:02.270Z,13.27
2017-11-15T02:30:30.515Z,14.30
2017-11-15T02:33:02.046Z,12.93
2017-11-15T02:35:29.498Z,13.85
2017-11-15T02:37:57.010Z,14.73
2017-11-15T02:40:24.437Z,12.70
2017-11-15T02:42:51.915Z,13.33
2017-11-15T02:45:19.349Z,15.97
2017-11-15T02:47:51.428Z,13.57
2017-11-15T02:50:18.901Z,15.45
2017-11-15T02:52:46.458Z,13.60
2017-11-15T02:55:13.926Z,14.40
2017-11-15T02:57:43.851Z,13.70
2017-11-15T03:00:13.024Z,14.02
2017-11-15T03:02:40.798Z,13.73
2017-11-15T03:05:08.462Z,13.60
2017-11-15T03:07:36.735Z,13.75
2017-11-15T03:10:04.198Z,13.50
2017-11-15T03:12:32.489Z,14.93
2017-11-15T03:15:00.141Z,12.90
2017-11-15T03:17:27.586Z,12.60
2017-11-15T03:19:55.018Z,14.37
2017-11-15T03:22:22.478Z,14.00
2017-11-15T03:24:50.066Z,14.57
2017-11-15T03:27:17.550Z,16.30
2017-11-15T03:29:45.814Z,13.57
2017-11-15T03:32:13.289Z,12.87
2017-11-15T03:34:44.481Z,13.80
2017-11-15T03:37:11.926Z,13.55
2017-11-15T03:39:39.370Z,12.97
2017-11-15T03:42:08.046Z,13.97
2017-11-15T03:44:35.510Z,14.10
2017-11-15T03:47:02.989Z,13.90
2017-11-15T03:49:30.655Z,15.90
2017-11-15T03:51:58.111Z,16.00
2017-11-15T03:54:26.342Z,14.37
2017-11-15T03:56:53.958Z,15.38
2017-11-15T03:59:21.409Z,15.17
2017-11-15T04:01:49.278Z,14.35
2017-11-15T04:04:21.322Z,13.50
2017-11-15T04:06:50.002Z,12.70
2017-11-15T04:09:17.469Z,15.53
2017-11-15T04:11:44.919Z,15.10
2017-11-15T04:14:12.394Z,14.80
2017-11-15T04:16:39.845Z,15.20
2017-11-15T04:19:11.607Z,13.70
2017-11-15T04:21:39.226Z,14.07
2017-11-15T04:24:06.685Z,14.40
2017-11-15T04:26:34.614Z,13.83
2017-11-15T04:29:02.109Z,15.03
2017-11-15T04:31:29.568Z,14.37
2017-11-15T04:33:57.006Z,15.20
2017-11-15T04:36:24.605Z,15.13
2017-11-15T04:38:53.418Z,15.80
2017-11-15T04:41:21.043Z,14.60
2017-11-15T04:43:48.518Z,15.03
2017-11-15T04:46:16.030Z,16.05
2017-11-15T04:48:43.526Z,17.20
2017-11-15T04:51:11.933Z,14.23
2017-11-15T04:53:39.483Z,16.83
2017-11-15T04:56:07.827Z,15.00
2017-11-15T04:58:35.278Z,15.82
2017-11-15T05:01:02.737Z,14.00
2017-11-15T05:03:31.673Z,14.05
2017-11-15T05:05:59.128Z,12.67
2017-11-15T05:08:26.596Z,14.70
2017-11-15T05:10:54.077Z,15.27
2017-11-15T05:13:21.790Z,13.70
2017-11-15T05:15:49.857Z,17.70
2017-11-15T05:18:17.315Z,15.98
2017-11-15T05:20:44.802Z,15.50
2017-11-15T05:23:12.284Z,16.80
2017-11-15T05:25:39.893Z,15.80
2017-11-15T05:28:07.361Z,15.48
2017-11-15T05:30:34.842Z,17.20
2017-11-15T05:33:02.395Z,15.40
2017-11-15T05:35:29.833Z,13.77
2017-11-15T05:37:57.517Z,18.47
2017-11-15T05:40:25.041Z,16.77
2017-11-15T05:42:53.447Z,14.27
2017-11-15T05:45:20.905Z,15.70
2017-11-15T05:47:48.356Z,17.00
2017-11-15T05:50:16.106Z,14.90
2017-11-15T05:52:43.601Z,15.80
2017-11-15T05:55:11.673Z,15.88
2017-11-15T05:57:39.127Z,16.67
2017-11-15T06:00:06.742Z,16.47
2017-11-15T06:02:34.212Z,18.37
2017-11-15T06:05:01.661Z,16.00
2017-11-15T06:07:29.411Z,15.27
2017-11-15T06:09:58.184Z,15.27
2017-11-15T06:12:25.710Z,15.75
2017-11-15T06:14:53.151Z,13.03
2017-11-15T06:17:20.588Z,15.67
2017-11-15T06:19:48.142Z,15.00
2017-11-15T06:22:15.494Z,14.70
2017-11-15T06:24:43.077Z,14.17
2017-11-15T06:27:11.052Z,14.27
2017-11-15T06:29:39.379Z,14.63
2017-11-15T06:32:07.620Z,13.10
2017-11-15T06:34:35.320Z,14.90
2017-11-15T06:37:02.745Z,14.73
2017-11-15T06:39:30.399Z,13.60
2017-11-15T06:41:58.821Z,14.45
2017-11-15T06:44:26.294Z,13.73
2017-11-15T06:46:54.000Z,14.23
2017-11-15T06:49:23.130Z,14.10
2017-11-15T06:51:50.721Z,14.57
2017-11-15T06:54:18.198Z,14.80
2017-11-15T06:56:46.589Z,14.20
2017-11-15T06:59:14.854Z,13.23
2017-11-15T07:01:42.537Z,14.75
2017-11-15T07:04:10.170Z,13.27
2017-11-15T07:06:37.634Z,14.37
2017-11-15T07:09:05.441Z,14.83
2017-11-15T07:11:32.875Z,13.13
2017-11-15T07:14:00.559Z,15.67
2017-11-15T07:16:28.328Z,12.20
2017-11-15T07:18:55.966Z,14.20
2017-11-15T07:21:23.690Z,13.60
2017-11-15T07:23:51.313Z,14.60
2017-11-15T07:26:18.773Z,12.10
2017-11-15T07:28:46.371Z,15.20
2017-11-15T07:31:15.593Z,13.30
2017-11-15T07:33:43.157Z,13.60
2017-11-15T07:36:10.805Z,12.83
2017-11-15T07:38:42.338Z,14.40
2017-11-15T07:41:10.028Z,13.90
2017-11-15T07:43:37.486Z,11.43
2017-11-15T07:46:05.528Z,13.93
2017-11-15T07:48:33.782Z,11.33
2017-11-15T07:51:01.230Z,12.73
2017-11-15T07:53:30.121Z,12.18
2017-11-15T07:56:01.597Z,13.30
2017-11-15T07:58:29.883Z,14.00
2017-11-15T08:00:57.357Z,13.33
2017-11-15T08:03:25.560Z,12.67
2017-11-15T08:05:53.039Z,12.85
2017-11-15T08:08:20.541Z,13.10
2017-11-15T08:10:49.384Z,12.37
2017-11-15T08:13:18.936Z,13.93
2017-11-15T08:15:46.496Z,14.30
2017-11-15T08:18:15.406Z,13.90
2017-11-15T08:20:43.570Z,13.32
2017-11-15T08:23:13.069Z,13.13
2017-11-15T08:25:40.586Z,13.60
2017-11-15T08:28:08.630Z,13.77
2017-11-15T08:30:36.076Z,13.33
2017-11-15T08:33:03.526Z,15.37
2017-11-15T08:35:31.004Z,13.02
2017-11-15T08:38:01.454Z,12.57
2017-11-15T08:40:29.212Z,13.80
2017-11-15T08:42:56.686Z,13.30
2017-11-15T08:45:24.146Z,12.97
2017-11-15T08:47:52.538Z,14.70
2017-11-15T08:50:20.057Z,14.47
2017-11-15T08:52:47.543Z,16.13
2017-11-15T08:55:19.003Z,17.53
2017-11-15T08:57:47.403Z,15.85
2017-11-15T09:00:14.878Z,15.80
2017-11-15T09:02:42.318Z,16.40
2017-11-15T09:05:09.818Z,14.98
2017-11-15T09:07:37.525Z,15.60
2017-11-15T09:10:04.976Z,14.60
2017-11-15T09:12:32.456Z,16.30
2017-11-15T09:15:01.706Z,15.07
2017-11-15T09:17:29.666Z,14.20
2017-11-15T09:19:57.117Z,16.05
2017-11-15T09:22:25.497Z,18.10
2017-11-15T09:24:56.509Z,17.20
2017-11-15T09:27:24.230Z,17.50
2017-11-15T09:29:51.733Z,17.77
2017-11-15T09:32:19.182Z,16.80
2017-11-15T09:34:46.648Z,15.93
2017-11-15T09:37:14.358Z,16.85
2017-11-15T09:39:52.926Z,15.80
2017-11-15T09:42:20.394Z,15.03
2017-11-15T09:44:47.901Z,18.17
2017-11-15T09:47:16.023Z,21.33
2017-11-15T09:49:43.467Z,17.90
2017-11-15T09:52:11.702Z,20.37
2017-11-15T09:54:44.070Z,18.17
2017-11-15T09:57:11.595Z,18.77
2017-11-15T09:59:39.059Z,19.35
2017-11-15T10:02:06.675Z,18.37
2017-11-15T10:04:34.146Z,21.40
2017-11-15T10:07:02.470Z,16.70
2017-11-15T10:09:30.362Z,18.65
2017-11-15T10:11:57.822Z,17.00
2017-11-15T10:14:26.844Z,19.75
2017-11-15T10:17:01.363Z,18.85
2017-11-15T10:19:29.334Z,19.77
2017-11-15T10:21:56.825Z,17.77
2017-11-15T10:24:24.638Z,16.62
2017-11-15T10:26:55.483Z,19.47
2017-11-15T10:29:23.226Z,21.33
2017-11-15T10:31:50.670Z,18.77
2017-11-15T10:34:18.153Z,17.43
2017-11-15T10:36:45.590Z,17.98
2017-11-15T10:39:13.350Z,21.70
2017-11-15T10:41:40.802Z,18.10
2017-11-15T10:44:08.265Z,19.25
2017-11-15T10:46:35.715Z,18.23
2017-11-15T10:49:03.878Z,19.62
2017-11-15T10:51:31.486Z,18.93
2017-11-15T10:53:59.033Z,19.70
2017-11-15T10:56:31.086Z,18.40
2017-11-15T10:58:58.638Z,19.90
2017-11-15T11:01:26.115Z,19.77
2017-11-15T11:03:53.564Z,17.95
2017-11-15T11:06:21.009Z,20.03
2017-11-15T11:08:48.481Z,20.17
2017-11-15T11:11:15.919Z,19.43
2017-11-15T11:13:43.390Z,17.53
2017-11-15T11:16:10.848Z,18.53
2017-11-15T11:18:38.309Z,20.17
2017-11-15T11:21:05.770Z,19.73
2017-11-15T11:23:33.218Z,20.08
2017-11-15T11:26:05.179Z,18.67
2017-11-15T11:28:32.632Z,18.20
2017-11-15T11:31:00.066Z,18.10
2017-11-15T11:33:28.497Z,18.90
2017-11-15T11:35:56.810Z,21.33
2017-11-15T11:38:24.329Z,17.90
2017-11-15T11:40:52.654Z,18.43
2017-11-15T11:43:21.050Z,18.45
2017-11-15T11:45:48.493Z,16.33
2017-11-15T11:48:16.344Z,16.43
2017-11-15T11:50:43.899Z,18.40
2017-11-15T11:53:11.367Z,16.33
2017-11-15T11:55:38.982Z,17.80
2017-11-15T11:58:06.763Z,15.85
2017-11-15T12:00:34.502Z,16.58
2017-11-15T12:03:01.939Z,17.85
2017-11-15T12:05:30.265Z,16.73
2017-11-15T12:07:57.703Z,16.77
2017-11-15T12:10:25.167Z,16.73
2017-11-15T12:12:55.779Z,17.42
2017-11-15T12:15:24.761Z,16.85
2017-11-15T12:17:52.386Z,15.90
2017-11-15T12:20:19.853Z,15.83
2017-11-15T12:22:47.428Z,14.85
2017-11-15T12:25:14.870Z,14.57
2017-11-15T12:27:46.951Z,18.20
2017-11-15T12:30:14.398Z,18.00
2017-11-15T12:32:41.834Z,17.55
2017-11-15T12:35:09.316Z,15.40
2017-11-15T12:37:36.921Z,21.07
2017-11-15T12:40:05.168Z,17.73
2017-11-15T12:42:32.897Z,20.92
2017-11-15T12:45:00.355Z,18.33
2017-11-15T12:47:27.943Z,17.90
2017-11-15T12:49:55.382Z,20.35
2017-11-15T12:52:23.056Z,19.55
2017-11-15T12:54:50.509Z,20.02
2017-11-15T12:57:21.353Z,19.35
2017-11-15T12:59:49.026Z,18.80
2017-11-15T13:02:18.506Z,18.75
2017-11-15T13:04:45.942Z,19.12
2017-11-15T13:07:13.405Z,19.58
2017-11-15T13:09:41.418Z,21.52
2017-11-15T13:12:09.040Z,20.75
2017-11-15T13:14:36.490Z,20.30
2017-11-15T13:17:04.073Z,19.25
2017-11-15T13:19:31.556Z,18.60
2017-11-15T13:21:58.994Z,18.30
2017-11-15T13:24:26.793Z,18.37
2017-11-15T13:26:55.922Z,19.10
2017-11-15T13:29:23.395Z,18.57
2017-11-15T13:31:50.967Z,18.25
2017-11-15T13:34:18.425Z,20.80
2017-11-15T13:36:45.876Z,19.10
2017-11-15T13:39:14.159Z,19.30
2017-11-15T13:41:41.605Z,17.87
2017-11-15T13:44:09.055Z,19.40
2017-11-15T13:46:36.516Z,18.37
2017-11-15T13:49:04.063Z,16.17
2017-11-15T13:51:31.544Z,19.00
2017-11-15T13:53:59.030Z,18.87
2017-11-15T13:56:26.486Z,20.37
2017-11-15T13:58:57.037Z,18.48
2017-11-15T14:01:24.628Z,22.13
2017-11-15T14:03:53.437Z,18.12
2017-11-15T14:06:20.913Z,17.77
2017-11-15T14:08:48.594Z,18.83
2017-11-15T14:11:16.985Z,16.10
2017-11-15T14:13:44.502Z,19.43
2017-11-15T14:16:11.949Z,17.33
2017-11-15T14:18:39.649Z,18.93
2017-11-15T14:21:07.121Z,19.00
2017-11-15T14:23:34.562Z,19.50
2017-11-15T14:26:02.011Z,20.90
2017-11-15T14:28:29.465Z,18.07
2017-11-15T14:31:00.074Z,19.12
2017-11-15T14:33:27.571Z,19.23
2017-11-15T14:35:55.776Z,18.48
2017-11-15T14:38:23.453Z,18.12
2017-11-15T14:40:50.917Z,18.23
2017-11-15T14:43:18.386Z,17.67
2017-11-15T14:45:49.166Z,19.57
2017-11-15T14:48:16.717Z,18.60
2017-11-15T14:50:44.987Z,18.12
2017-11-15T14:53:12.593Z,20.05
2017-11-15T14:55:40.066Z,20.80
2017-11-15T14:58:07.803Z,16.17
2017-11-15T15:00:35.293Z,17.50
2017-11-15T15:03:02.819Z,22.00
2017-11-15T15:05:30.261Z,19.43
2017-11-15T15:07:57.739Z,20.43
2017-11-15T15:10:25.609Z,19.83
2017-11-15T15:12:54.014Z,18.73
2017-11-15T15:15:21.457Z,16.53
2017-11-15T15:17:48.903Z,17.70
2017-11-15T15:20:16.384Z,17.83
2017-11-15T15:22:44.088Z,19.37
2017-11-15T15:25:12.290Z,17.05
2017-11-15T15:27:39.881Z,20.88
2017-11-15T15:30:11.664Z,17.33
2017-11-15T15:32:39.230Z,19.42
2017-11-15T15:35:08.880Z,20.17
2017-11-15T15:37:36.362Z,16.20
2017-11-15T15:40:03.926Z,18.12
2017-11-15T15:42:32.189Z,16.90
2017-11-15T15:45:03.744Z,17.80
2017-11-15T15:47:31.205Z,17.80
2017-11-15T15:49:58.837Z,18.10
2017-11-15T15:52:28.583Z,19.70
2017-11-15T15:54:56.066Z,18.98
2017-11-15T15:57:23.542Z,17.30
2017-11-15T15:59:52.283Z,18.45
2017-11-15T16:02:19.770Z,19.52
2017-11-15T16:04:48.030Z,19.90
2017-11-15T16:07:16.755Z,18.37
2017-11-15T16:09:44.460Z,19.40
2017-11-15T16:12:11.966Z,18.67
2017-11-15T16:14:39.427Z,20.85
2017-11-15T16:17:06.873Z,22.43
2017-11-15T16:19:36.018Z,21.00
2017-11-15T16:22:03.499Z,20.97
2017-11-15T16:24:31.924Z,20.80
2017-11-15T16:26:59.696Z,22.75
2017-11-15T16:29:28.058Z,21.27
2017-11-15T16:32:10.242Z,22.60
2017-11-15T16:34:37.687Z,19.50
2017-11-15T16:37:05.929Z,21.07
2017-11-15T16:39:33.473Z,20.13
2017-11-15T16:42:01.992Z,19.70
2017-11-15T16:44:29.578Z,19.50
2017-11-15T16:46:57.854Z,19.95
2017-11-15T16:49:26.148Z,19.95
2017-11-15T16:51:53.609Z,18.77
2017-11-15T16:54:21.109Z,18.20
2017-11-15T16:56:48.597Z,19.30
2017-11-15T16:59:16.056Z,17.40
2017-11-15T17:01:46.869Z,16.90
2017-11-15T17:04:14.546Z,17.75
2017-11-15T17:06:42.002Z,15.70
2017-11-15T17:09:10.746Z,19.60
2017-11-15T17:11:38.295Z,15.52
2017-11-15T17:14:05.724Z,16.93
2017-11-15T17:16:37.139Z,18.23
2017-11-15T17:19:05.121Z,16.92
2017-11-15T17:21:32.581Z,19.53
2017-11-15T17:24:00.057Z,18.27
2017-11-15T17:26:27.543Z,16.83
2017-11-15T17:28:55.107Z,16.90
2017-11-15T17:31:22.825Z,18.67
2017-11-15T17:33:50.387Z,18.20
2017-11-15T17:36:19.275Z,18.63
2017-11-15T17:38:46.840Z,19.13
2017-11-15T17:41:15.061Z,17.75
2017-11-15T17:43:43.081Z,16.65
2017-11-15T17:46:10.541Z,17.92
2017-11-15T17:48:38.014Z,19.13
2017-11-15T17:51:05.542Z,21.40
2017-11-15T17:53:33.057Z,17.42
2017-11-15T17:56:00.545Z,18.02
2017-11-15T17:58:28.025Z,20.77
2017-11-15T18:00:55.570Z,17.84
2017-11-15T18:03:23.033Z,18.97
2017-11-15T18:05:51.009Z,20.35
2017-11-15T18:08:18.507Z,19.53
2017-11-15T18:10:46.110Z,19.07
2017-11-15T18:13:13.557Z,19.10
2017-11-15T18:15:41.006Z,18.20
2017-11-15T18:18:11.886Z,21.20
2017-11-15T18:20:39.342Z,18.48
2017-11-15T18:23:06.967Z,20.40
2017-11-15T18:25:34.973Z,19.27
2017-11-15T18:28:03.185Z,20.33
2017-11-15T18:30:30.642Z,19.30
2017-11-15T18:33:01.205Z,21.27
2017-11-15T18:35:28.689Z,19.17
2017-11-15T18:37:56.938Z,20.07
2017-11-15T18:40:25.293Z,18.92
2017-11-15T18:42:52.787Z,18.00
2017-11-15T18:45:20.230Z,21.00
2017-11-15T18:47:47.759Z,20.70
2017-11-15T18:50:15.222Z,21.50
2017-11-15T18:52:44.385Z,20.42
2017-11-15T18:55:12.622Z,19.63
2017-11-15T18:57:40.067Z,19.57
2017-11-15T19:00:09.037Z,19.77
2017-11-15T19:02:38.251Z,18.42
2017-11-15T19:05:05.689Z,19.62
2017-11-15T19:07:33.244Z,20.62
2017-11-15T19:10:00.970Z,18.50
2017-11-15T19:12:29.186Z,19.95
2017-11-15T19:14:58.398Z,20.77
2017-11-15T19:17:25.839Z,19.50
2017-11-15T19:19:56.829Z,21.60
2017-11-15T19:22:24.466Z,20.75
2017-11-15T19:24:53.494Z,21.65
2017-11-15T19:27:20.942Z,22.03
2017-11-15T19:29:48.370Z,21.35
2017-11-15T19:32:15.871Z,19.17
2017-11-15T19:34:43.315Z,22.23
2017-11-15T19:37:11.864Z,19.93
2017-11-15T19:39:39.313Z,22.30
2017-11-15T19:42:06.775Z,19.90
2017-11-15T19:44:34.948Z,21.43
2017-11-15T19:47:02.397Z,20.42
2017-11-15T19:49:34.504Z,18.90
2017-11-15T19:52:02.209Z,21.62
2017-11-15T19:54:29.921Z,20.30
2017-11-15T19:56:58.018Z,21.30
2017-11-15T19:59:26.746Z,20.55
2017-11-15T20:01:55.022Z,20.77
2017-11-15T20:04:22.494Z,18.62
2017-11-15T20:06:51.268Z,19.02
2017-11-15T20:09:18.730Z,20.33
2017-11-15T20:11:46.178Z,18.20
2017-11-15T20:14:13.657Z,19.73
2017-11-15T20:16:41.910Z,21.63
2017-11-15T20:19:09.834Z,19.27
2017-11-15T20:21:40.719Z,19.93
2017-11-15T20:24:08.198Z,17.42
2017-11-15T20:26:35.729Z,20.00
2017-11-15T20:29:03.318Z,20.53
2017-11-15T20:31:30.799Z,21.20
2017-11-15T20:34:00.517Z,20.80
2017-11-15T20:36:33.433Z,19.05
2017-11-15T20:39:01.039Z,23.03
2017-11-15T20:41:29.209Z,21.03
2017-11-15T20:43:56.643Z,21.70
2017-11-15T20:46:24.331Z,22.25
2017-11-15T20:48:51.802Z,23.00
2017-11-15T20:51:23.056Z,21.43
2017-11-15T20:53:50.514Z,19.13
2017-11-15T20:56:19.673Z,23.42
2017-11-15T20:58:47.160Z,22.97
2017-11-15T21:01:15.122Z,22.37
2017-11-15T21:03:42.598Z,21.07
2017-11-15T21:06:10.810Z,23.15
2017-11-15T21:08:39.490Z,22.83
2017-11-15T21:11:06.974Z,25.47
2017-11-15T21:13:34.753Z,22.27
2017-11-15T21:16:03.011Z,22.23
2017-11-15T21:18:30.542Z,20.67
2017-11-15T21:21:02.372Z,19.93
2017-11-15T21:23:29.814Z,22.87
2017-11-15T21:25:58.047Z,22.00
2017-11-15T21:28:25.482Z,22.90
2017-11-15T21:30:53.258Z,22.10
2017-11-15T21:33:20.780Z,21.43
2017-11-15T21:35:48.234Z,19.40
2017-11-15T21:38:15.698Z,19.77
2017-11-15T21:40:43.141Z,23.20
2017-11-15T21:43:10.613Z,20.97
2017-11-15T21:45:38.418Z,21.37
2017-11-15T21:48:06.506Z,19.95
2017-11-15T21:50:34.024Z,20.00
2017-11-15T21:53:01.466Z,21.67
2017-11-15T21:55:30.613Z,22.17
2017-11-15T21:57:58.113Z,21.90
2017-11-15T22:00:25.550Z,19.00
2017-11-15T22:02:53.022Z,22.47
2017-11-15T22:05:21.246Z,20.53
2017-11-15T22:07:48.729Z,20.98
2017-11-15T22:10:16.175Z,20.90
2017-11-15T22:12:43.619Z,22.07
2017-11-15T22:15:11.194Z,20.77
2017-11-15T22:17:38.985Z,20.47
2017-11-15T22:20:06.463Z,21.40
2017-11-15T22:22:34.697Z,20.95
2017-11-15T22:25:02.678Z,22.03
2017-11-15T22:27:30.465Z,22.13
2017-11-15T22:29:58.106Z,19.75
2017-11-15T22:32:25.577Z,20.13
2017-11-15T22:34:53.065Z,20.83
2017-11-15T22:37:23.638Z,19.87
2017-11-15T22:39:51.074Z,18.77
2017-11-15T22:42:18.522Z,18.63
2017-11-15T22:44:46.014Z,19.12
2017-11-15T22:47:13.451Z,17.93
2017-11-15T22:49:41.867Z,20.37
2017-11-15T22:52:09.302Z,18.03
2017-11-15T22:54:36.749Z,19.17
2017-11-15T22:57:04.209Z,19.98
2017-11-15T22:59:31.656Z,16.07
2017-11-15T23:01:59.459Z,13.88
2017-11-15T23:04:26.918Z,14.73
2017-11-15T23:06:55.574Z,11.80
2017-11-15T23:09:23.039Z,13.13
2017-11-15T23:11:50.794Z,12.90
2017-11-15T23:14:18.237Z,12.60
2017-11-15T23:16:45.699Z,12.98
2017-11-15T23:19:13.159Z,13.37
2017-11-15T23:21:40.827Z,12.10
2017-11-15T23:24:09.310Z,12.77
2017-11-15T23:26:36.840Z,12.10
2017-11-15T23:29:04.319Z,11.60
2017-11-15T23:31:31.894Z,11.25
2017-11-15T23:33:59.451Z,10.23
2017-11-15T23:36:26.894Z,12.80
2017-11-15T23:38:54.361Z,11.07
2017-11-15T23:41:22.749Z,9.97
2017-11-15T23:43:50.189Z,11.73
2017-11-15T23:46:17.649Z,12.50
2017-11-15T23:48:45.293Z,12.83
2017-11-15T23:51:12.776Z,13.82
2017-11-15T23:53:40.230Z,13.77
2017-11-15T23:56:07.705Z,13.30
2017-11-15T23:58:35.154Z,12.37
